sensor_id;sensor_type;location;lat;lon;timestamp;noise_LAeq;noise_LA_min;noise_LA_max;noise_LA01;noise_LA95
51665;Laerm;37751;52.408;12.536;2023-05-16T00:00:31;52.97;42.30;72.76;;
51665;Laerm;37751;52.408;12.536;2023-05-16T00:03:01;48.24;42.53;63.51;;
51665;Laerm;37751;52.408;12.536;2023-05-16T00:05:29;51.09;42.38;66.46;;
51665;Laerm;37751;52.408;12.536;2023-05-16T00:07:57;48.58;42.61;64.64;;
51665;Laerm;37751;52.408;12.536;2023-05-16T00:10:25;51.41;42.82;66.74;;
51665;Laerm;37751;52.408;12.536;2023-05-16T00:12:53;53.24;42.61;72.17;;
51665;Laerm;37751;52.408;12.536;2023-05-16T00:15:21;53.77;42.68;71.07;;
51665;Laerm;37751;52.408;12.536;2023-05-16T00:17:49;54.56;42.96;73.15;;
51665;Laerm;37751;52.408;12.536;2023-05-16T00:20:18;47.90;42.75;63.06;;
51665;Laerm;37751;52.408;12.536;2023-05-16T00:22:50;54.39;41.98;71.28;;
51665;Laerm;37751;52.408;12.536;2023-05-16T00:25:17;49.18;42.53;65.17;;
51665;Laerm;37751;52.408;12.536;2023-05-16T00:27:45;46.87;42.22;59.61;;
51665;Laerm;37751;52.408;12.536;2023-05-16T00:30:15;48.65;41.62;68.12;;
51665;Laerm;37751;52.408;12.536;2023-05-16T00:32:43;47.48;42.22;58.22;;
51665;Laerm;37751;52.408;12.536;2023-05-16T00:35:11;51.95;42.53;71.80;;
51665;Laerm;37751;52.408;12.536;2023-05-16T00:37:39;54.13;42.38;71.33;;
51665;Laerm;37751;52.408;12.536;2023-05-16T00:40:07;54.04;42.89;72.67;;
51665;Laerm;37751;52.408;12.536;2023-05-16T00:42:35;54.44;41.23;73.00;;
51665;Laerm;37751;52.408;12.536;2023-05-16T00:45:05;54.44;41.03;72.12;;
51665;Laerm;37751;52.408;12.536;2023-05-16T00:47:34;47.88;42.22;65.71;;
51665;Laerm;37751;52.408;12.536;2023-05-16T00:50:02;55.67;43.98;74.47;;
51665;Laerm;37751;52.408;12.536;2023-05-16T00:52:31;54.40;44.14;72.49;;
51665;Laerm;37751;52.408;12.536;2023-05-16T00:55:00;52.78;43.41;69.48;;
51665;Laerm;37751;52.408;12.536;2023-05-16T00:57:28;44.54;41.43;53.94;;
51665;Laerm;37751;52.408;12.536;2023-05-16T00:59:56;49.99;42.22;66.03;;
51665;Laerm;37751;52.408;12.536;2023-05-16T01:02:25;55.65;42.30;72.79;;
51665;Laerm;37751;52.408;12.536;2023-05-16T01:04:55;50.67;42.68;67.17;;
51665;Laerm;37751;52.408;12.536;2023-05-16T01:07:23;56.40;42.82;69.85;;
51665;Laerm;37751;52.408;12.536;2023-05-16T01:09:51;56.53;42.89;72.01;;
51665;Laerm;37751;52.408;12.536;2023-05-16T01:16:21;52.94;42.89;70.49;;
51665;Laerm;37751;52.408;12.536;2023-05-16T01:22:02;47.75;40.92;65.02;;
51665;Laerm;37751;52.408;12.536;2023-05-16T01:24:38;52.31;41.33;70.86;;
51665;Laerm;37751;52.408;12.536;2023-05-16T01:27:10;51.08;43.16;66.50;;
51665;Laerm;37751;52.408;12.536;2023-05-16T01:29:40;50.86;42.53;65.77;;
51665;Laerm;37751;52.408;12.536;2023-05-16T01:32:07;51.10;42.38;67.69;;
51665;Laerm;37751;52.408;12.536;2023-05-16T01:34:36;52.82;42.82;69.81;;
51665;Laerm;37751;52.408;12.536;2023-05-16T01:37:17;52.80;41.80;70.20;;
51665;Laerm;37751;52.408;12.536;2023-05-16T01:40:11;44.40;40.21;67.06;;
51665;Laerm;37751;52.408;12.536;2023-05-16T01:42:44;58.15;42.53;75.16;;
51665;Laerm;37751;52.408;12.536;2023-05-16T01:45:28;53.53;43.47;67.70;;
51665;Laerm;37751;52.408;12.536;2023-05-16T01:48:17;55.35;41.23;74.33;;
51665;Laerm;37751;52.408;12.536;2023-05-16T01:50:54;51.11;44.14;64.89;;
51665;Laerm;37751;52.408;12.536;2023-05-16T01:53:31;57.10;43.93;70.29;;
51665;Laerm;37751;52.408;12.536;2023-05-16T01:56:01;60.80;43.09;75.68;;
51665;Laerm;37751;52.408;12.536;2023-05-16T01:58:32;57.30;44.94;71.67;;
51665;Laerm;37751;52.408;12.536;2023-05-16T02:01:02;54.02;44.04;66.72;;
51665;Laerm;37751;52.408;12.536;2023-05-16T02:03:31;55.29;42.75;69.91;;
51665;Laerm;37751;52.408;12.536;2023-05-16T02:05:59;55.66;43.09;71.99;;
51665;Laerm;37751;52.408;12.536;2023-05-16T02:08:28;56.96;42.61;71.72;;
51665;Laerm;37751;52.408;12.536;2023-05-16T02:10:55;54.03;43.59;69.05;;
51665;Laerm;37751;52.408;12.536;2023-05-16T02:13:23;54.82;43.65;69.38;;
51665;Laerm;37751;52.408;12.536;2023-05-16T02:15:51;56.58;42.61;71.19;;
51665;Laerm;37751;52.408;12.536;2023-05-16T02:18:19;59.34;45.35;77.50;;
51665;Laerm;37751;52.408;12.536;2023-05-16T02:20:47;57.82;48.32;73.55;;
51665;Laerm;37751;52.408;12.536;2023-05-16T02:23:15;56.36;44.54;72.41;;
51665;Laerm;37751;52.408;12.536;2023-05-16T02:25:43;59.14;45.80;71.89;;
51665;Laerm;37751;52.408;12.536;2023-05-16T02:28:11;56.72;47.02;70.25;;
51665;Laerm;37751;52.408;12.536;2023-05-16T02:30:38;59.12;46.89;79.85;;
51665;Laerm;37751;52.408;12.536;2023-05-16T02:33:06;62.19;48.04;72.86;;
51665;Laerm;37751;52.408;12.536;2023-05-16T02:35:34;56.61;44.94;68.82;;
51665;Laerm;37751;52.408;12.536;2023-05-16T02:38:02;59.85;46.91;73.18;;
51665;Laerm;37751;52.408;12.536;2023-05-16T02:40:29;60.70;48.65;71.72;;
51665;Laerm;37751;52.408;12.536;2023-05-16T02:42:57;59.48;45.76;72.22;;
51665;Laerm;37751;52.408;12.536;2023-05-16T02:45:25;62.64;46.48;77.89;;
51665;Laerm;37751;52.408;12.536;2023-05-16T02:47:53;58.26;46.89;72.19;;
51665;Laerm;37751;52.408;12.536;2023-05-16T02:50:21;60.68;48.24;74.26;;
51665;Laerm;37751;52.408;12.536;2023-05-16T02:52:49;60.79;48.18;73.21;;
51665;Laerm;37751;52.408;12.536;2023-05-16T02:55:17;61.67;50.04;73.99;;
51665;Laerm;37751;52.408;12.536;2023-05-16T02:57:49;61.87;48.95;77.44;;
51665;Laerm;37751;52.408;12.536;2023-05-16T03:00:17;61.23;49.00;74.34;;
51665;Laerm;37751;52.408;12.536;2023-05-16T03:02:47;60.56;48.93;73.07;;
51665;Laerm;37751;52.408;12.536;2023-05-16T03:05:15;59.78;49.64;73.98;;
51665;Laerm;37751;52.408;12.536;2023-05-16T03:07:43;59.82;48.74;70.33;;
51665;Laerm;37751;52.408;12.536;2023-05-16T03:10:11;63.17;48.98;78.67;;
51665;Laerm;37751;52.408;12.536;2023-05-16T03:12:38;60.02;49.08;69.57;;
51665;Laerm;37751;52.408;12.536;2023-05-16T03:15:06;60.09;48.88;73.24;;
51665;Laerm;37751;52.408;12.536;2023-05-16T03:17:36;63.04;51.80;77.63;;
51665;Laerm;37751;52.408;12.536;2023-05-16T03:20:04;60.24;49.87;70.36;;
51665;Laerm;37751;52.408;12.536;2023-05-16T03:22:35;63.63;52.04;75.45;;
51665;Laerm;37751;52.408;12.536;2023-05-16T03:25:03;64.09;52.56;76.13;;
51665;Laerm;37751;52.408;12.536;2023-05-16T03:27:31;59.84;48.24;76.81;;
51665;Laerm;37751;52.408;12.536;2023-05-16T03:29:59;61.41;49.81;71.39;;
51665;Laerm;37751;52.408;12.536;2023-05-16T03:32:27;61.08;49.18;72.06;;
51665;Laerm;37751;52.408;12.536;2023-05-16T03:34:54;63.46;52.31;74.76;;
51665;Laerm;37751;52.408;12.536;2023-05-16T03:37:23;63.84;50.88;73.84;;
51665;Laerm;37751;52.408;12.536;2023-05-16T03:39:50;60.91;49.79;69.70;;
51665;Laerm;37751;52.408;12.536;2023-05-16T03:42:18;63.26;52.20;74.26;;
51665;Laerm;37751;52.408;12.536;2023-05-16T03:44:46;63.98;51.26;74.47;;
51665;Laerm;37751;52.408;12.536;2023-05-16T03:47:14;63.85;49.16;76.99;;
51665;Laerm;37751;52.408;12.536;2023-05-16T03:49:42;62.37;50.59;75.17;;
51665;Laerm;37751;52.408;12.536;2023-05-16T03:52:10;64.47;52.46;77.54;;
51665;Laerm;37751;52.408;12.536;2023-05-16T03:54:37;62.67;49.84;78.47;;
51665;Laerm;37751;52.408;12.536;2023-05-16T03:57:05;63.29;51.68;73.31;;
51665;Laerm;37751;52.408;12.536;2023-05-16T03:59:33;69.14;48.59;92.61;;
51665;Laerm;37751;52.408;12.536;2023-05-16T04:02:01;62.30;50.39;71.76;;
51665;Laerm;37751;52.408;12.536;2023-05-16T04:04:29;63.02;48.61;73.03;;
51665;Laerm;37751;52.408;12.536;2023-05-16T04:06:56;63.47;51.70;71.24;;
51665;Laerm;37751;52.408;12.536;2023-05-16T04:09:24;63.33;48.59;78.72;;
51665;Laerm;37751;52.408;12.536;2023-05-16T04:11:52;63.36;49.55;78.18;;
51665;Laerm;37751;52.408;12.536;2023-05-16T04:14:19;63.25;48.77;72.48;;
51665;Laerm;37751;52.408;12.536;2023-05-16T04:16:47;64.75;49.70;74.74;;
51665;Laerm;37751;52.408;12.536;2023-05-16T04:19:15;63.65;49.81;73.10;;
51665;Laerm;37751;52.408;12.536;2023-05-16T04:21:43;63.69;50.43;75.38;;
51665;Laerm;37751;52.408;12.536;2023-05-16T04:24:10;65.03;51.71;78.58;;
51665;Laerm;37751;52.408;12.536;2023-05-16T04:26:38;64.28;51.13;73.89;;
51665;Laerm;37751;52.408;12.536;2023-05-16T04:29:05;64.71;51.34;79.21;;
51665;Laerm;37751;52.408;12.536;2023-05-16T04:31:33;63.36;49.57;76.12;;
51665;Laerm;37751;52.408;12.536;2023-05-16T04:34:01;66.22;49.28;77.94;;
51665;Laerm;37751;52.408;12.536;2023-05-16T04:36:29;64.71;50.58;74.02;;
51665;Laerm;37751;52.408;12.536;2023-05-16T04:38:57;65.84;51.05;87.31;;
51665;Laerm;37751;52.408;12.536;2023-05-16T04:41:25;63.97;51.21;73.89;;
51665;Laerm;37751;52.408;12.536;2023-05-16T04:43:53;63.95;49.92;73.33;;
51665;Laerm;37751;52.408;12.536;2023-05-16T04:49:55;64.85;51.27;74.52;;
51665;Laerm;37751;52.408;12.536;2023-05-16T04:52:23;65.53;54.45;77.54;;
51665;Laerm;37751;52.408;12.536;2023-05-16T04:54:51;64.63;50.62;76.25;;
51665;Laerm;37751;52.408;12.536;2023-05-16T04:57:19;65.08;51.27;75.75;;
51665;Laerm;37751;52.408;12.536;2023-05-16T04:59:46;73.86;51.28;97.22;;
51665;Laerm;37751;52.408;12.536;2023-05-16T05:02:14;67.94;52.70;82.92;;
51665;Laerm;37751;52.408;12.536;2023-05-16T05:04:42;67.45;54.58;79.15;;
51665;Laerm;37751;52.408;12.536;2023-05-16T05:07:09;66.92;51.67;88.04;;
51665;Laerm;37751;52.408;12.536;2023-05-16T05:09:37;63.89;50.85;74.94;;
51665;Laerm;37751;52.408;12.536;2023-05-16T05:12:05;65.56;53.36;81.13;;
51665;Laerm;37751;52.408;12.536;2023-05-16T05:14:34;64.61;51.53;76.35;;
51665;Laerm;37751;52.408;12.536;2023-05-16T05:17:11;64.93;53.37;72.43;;
51665;Laerm;37751;52.408;12.536;2023-05-16T05:19:39;65.73;55.84;85.64;;
51665;Laerm;37751;52.408;12.536;2023-05-16T05:22:07;63.75;51.73;74.93;;
51665;Laerm;37751;52.408;12.536;2023-05-16T05:24:35;65.98;52.09;78.57;;
51665;Laerm;37751;52.408;12.536;2023-05-16T05:27:02;64.90;54.02;76.34;;
51665;Laerm;37751;52.408;12.536;2023-05-16T05:29:30;66.74;51.46;83.60;;
51665;Laerm;37751;52.408;12.536;2023-05-16T05:31:58;63.24;50.07;73.99;;
51665;Laerm;37751;52.408;12.536;2023-05-16T05:34:26;64.10;51.31;74.18;;
51665;Laerm;37751;52.408;12.536;2023-05-16T05:36:53;64.59;58.29;71.08;;
51665;Laerm;37751;52.408;12.536;2023-05-16T05:39:22;64.79;52.99;72.10;;
51665;Laerm;37751;52.408;12.536;2023-05-16T05:41:51;65.70;54.73;78.39;;
51665;Laerm;37751;52.408;12.536;2023-05-16T05:44:18;64.55;52.13;73.12;;
51665;Laerm;37751;52.408;12.536;2023-05-16T05:46:46;64.79;54.33;74.87;;
51665;Laerm;37751;52.408;12.536;2023-05-16T05:49:14;74.63;51.06;97.33;;
51665;Laerm;37751;52.408;12.536;2023-05-16T05:51:42;63.15;50.08;71.34;;
51665;Laerm;37751;52.408;12.536;2023-05-16T05:54:10;64.34;55.24;73.35;;
51665;Laerm;37751;52.408;12.536;2023-05-16T05:56:38;67.11;56.41;82.98;;
51665;Laerm;37751;52.408;12.536;2023-05-16T05:59:05;66.91;55.69;79.91;;
51665;Laerm;37751;52.408;12.536;2023-05-16T06:01:33;63.41;50.52;71.83;;
51665;Laerm;37751;52.408;12.536;2023-05-16T06:04:01;66.16;49.70;76.52;;
51665;Laerm;37751;52.408;12.536;2023-05-16T06:06:29;63.74;53.33;77.06;;
51665;Laerm;37751;52.408;12.536;2023-05-16T06:08:58;63.56;52.42;72.43;;
51665;Laerm;37751;52.408;12.536;2023-05-16T06:11:25;65.17;51.25;78.50;;
51665;Laerm;37751;52.408;12.536;2023-05-16T06:13:53;66.23;57.40;78.73;;
51665;Laerm;37751;52.408;12.536;2023-05-16T06:16:24;64.80;51.79;79.66;;
51665;Laerm;37751;52.408;12.536;2023-05-16T06:18:52;64.24;53.78;74.28;;
51665;Laerm;37751;52.408;12.536;2023-05-16T06:21:20;65.56;53.83;79.47;;
51665;Laerm;37751;52.408;12.536;2023-05-16T06:23:48;63.78;51.04;75.68;;
51665;Laerm;37751;52.408;12.536;2023-05-16T06:26:15;65.69;52.41;74.81;;
51665;Laerm;37751;52.408;12.536;2023-05-16T06:28:43;63.89;49.61;72.84;;
51665;Laerm;37751;52.408;12.536;2023-05-16T06:31:11;64.77;52.65;75.00;;
51665;Laerm;37751;52.408;12.536;2023-05-16T06:33:38;64.96;53.15;77.53;;
51665;Laerm;37751;52.408;12.536;2023-05-16T06:36:06;64.91;53.13;78.39;;
51665;Laerm;37751;52.408;12.536;2023-05-16T06:38:34;63.54;53.20;71.83;;
51665;Laerm;37751;52.408;12.536;2023-05-16T06:41:02;65.21;54.06;76.35;;
51665;Laerm;37751;52.408;12.536;2023-05-16T06:43:29;64.26;53.67;74.15;;
51665;Laerm;37751;52.408;12.536;2023-05-16T06:45:57;65.20;53.73;79.23;;
51665;Laerm;37751;52.408;12.536;2023-05-16T06:48:25;65.53;53.73;76.40;;
51665;Laerm;37751;52.408;12.536;2023-05-16T06:50:53;64.85;53.04;76.67;;
51665;Laerm;37751;52.408;12.536;2023-05-16T06:53:21;64.28;53.48;72.72;;
51665;Laerm;37751;52.408;12.536;2023-05-16T06:55:49;65.14;55.34;73.31;;
51665;Laerm;37751;52.408;12.536;2023-05-16T06:58:17;63.65;49.20;72.21;;
51665;Laerm;37751;52.408;12.536;2023-05-16T07:00:45;65.90;50.59;77.88;;
51665;Laerm;37751;52.408;12.536;2023-05-16T07:03:12;64.18;51.01;73.24;;
51665;Laerm;37751;52.408;12.536;2023-05-16T07:05:40;65.60;54.08;78.31;;
51665;Laerm;37751;52.408;12.536;2023-05-16T07:08:08;64.45;52.24;75.87;;
51665;Laerm;37751;52.408;12.536;2023-05-16T07:10:39;65.77;53.59;78.02;;
51665;Laerm;37751;52.408;12.536;2023-05-16T07:13:07;64.06;54.21;75.15;;
51665;Laerm;37751;52.408;12.536;2023-05-16T07:15:35;64.58;52.45;74.33;;
51665;Laerm;37751;52.408;12.536;2023-05-16T07:18:02;64.74;50.78;73.56;;
51665;Laerm;37751;52.408;12.536;2023-05-16T07:20:30;64.67;52.69;73.61;;
51665;Laerm;37751;52.408;12.536;2023-05-16T07:22:58;64.94;52.21;72.56;;
51665;Laerm;37751;52.408;12.536;2023-05-16T07:25:26;63.18;50.06;71.91;;
51665;Laerm;37751;52.408;12.536;2023-05-16T07:27:54;65.87;53.51;78.87;;
51665;Laerm;37751;52.408;12.536;2023-05-16T07:30:22;65.07;50.63;79.32;;
51665;Laerm;37751;52.408;12.536;2023-05-16T07:32:51;63.19;50.56;82.44;;
51665;Laerm;37751;52.408;12.536;2023-05-16T07:35:18;63.84;54.96;71.63;;
51665;Laerm;37751;52.408;12.536;2023-05-16T07:37:46;65.28;53.13;75.06;;
51665;Laerm;37751;52.408;12.536;2023-05-16T07:40:14;64.10;55.84;75.56;;
51665;Laerm;37751;52.408;12.536;2023-05-16T07:42:42;64.17;55.09;73.48;;
51665;Laerm;37751;52.408;12.536;2023-05-16T07:45:09;63.56;51.12;71.11;;
51665;Laerm;37751;52.408;12.536;2023-05-16T07:47:37;62.77;51.29;75.76;;
51665;Laerm;37751;52.408;12.536;2023-05-16T07:50:05;68.02;54.53;94.43;;
51665;Laerm;37751;52.408;12.536;2023-05-16T07:52:33;67.15;56.05;79.12;;
51665;Laerm;37751;52.408;12.536;2023-05-16T07:55:02;65.85;55.58;76.82;;
51665;Laerm;37751;52.408;12.536;2023-05-16T07:57:30;66.08;57.56;77.02;;
51665;Laerm;37751;52.408;12.536;2023-05-16T07:59:57;64.49;53.46;77.86;;
51665;Laerm;37751;52.408;12.536;2023-05-16T08:02:25;64.31;53.33;79.90;;
51665;Laerm;37751;52.408;12.536;2023-05-16T08:04:57;65.34;53.29;74.91;;
51665;Laerm;37751;52.408;12.536;2023-05-16T08:07:25;64.10;54.49;73.30;;
51665;Laerm;37751;52.408;12.536;2023-05-16T08:09:53;64.80;54.91;76.68;;
51665;Laerm;37751;52.408;12.536;2023-05-16T08:12:20;63.21;51.20;71.00;;
51665;Laerm;37751;52.408;12.536;2023-05-16T08:14:48;63.77;50.94;83.12;;
51665;Laerm;37751;52.408;12.536;2023-05-16T08:17:16;65.10;53.31;75.65;;
51665;Laerm;37751;52.408;12.536;2023-05-16T08:19:43;65.62;56.28;73.94;;
51665;Laerm;37751;52.408;12.536;2023-05-16T08:22:11;65.61;55.61;74.92;;
51665;Laerm;37751;52.408;12.536;2023-05-16T08:24:39;66.12;53.13;77.93;;
51665;Laerm;37751;52.408;12.536;2023-05-16T08:27:07;63.82;52.61;77.80;;
51665;Laerm;37751;52.408;12.536;2023-05-16T08:29:35;63.70;53.72;73.31;;
51665;Laerm;37751;52.408;12.536;2023-05-16T08:32:04;64.93;54.69;76.14;;
51665;Laerm;37751;52.408;12.536;2023-05-16T08:34:32;64.99;54.18;75.29;;
51665;Laerm;37751;52.408;12.536;2023-05-16T08:37:00;63.49;53.46;72.85;;
51665;Laerm;37751;52.408;12.536;2023-05-16T08:39:28;65.54;56.37;79.53;;
51665;Laerm;37751;52.408;12.536;2023-05-16T08:41:57;64.49;52.39;74.00;;
51665;Laerm;37751;52.408;12.536;2023-05-16T08:44:27;64.26;53.19;74.92;;
51665;Laerm;37751;52.408;12.536;2023-05-16T08:46:56;65.68;53.50;76.72;;
51665;Laerm;37751;52.408;12.536;2023-05-16T08:49:26;63.88;54.26;71.16;;
51665;Laerm;37751;52.408;12.536;2023-05-16T08:51:56;65.15;52.33;72.87;;
51665;Laerm;37751;52.408;12.536;2023-05-16T08:54:25;65.10;58.08;73.98;;
51665;Laerm;37751;52.408;12.536;2023-05-16T08:56:55;65.13;57.57;74.11;;
51665;Laerm;37751;52.408;12.536;2023-05-16T08:59:24;64.46;54.64;73.97;;
51665;Laerm;37751;52.408;12.536;2023-05-16T09:01:52;65.96;51.79;84.66;;
51665;Laerm;37751;52.408;12.536;2023-05-16T09:04:19;65.41;55.53;74.12;;
51665;Laerm;37751;52.408;12.536;2023-05-16T09:06:48;64.68;55.85;72.46;;
51665;Laerm;37751;52.408;12.536;2023-05-16T09:09:16;64.29;54.93;73.35;;
51665;Laerm;37751;52.408;12.536;2023-05-16T09:11:45;66.02;53.50;83.60;;
51665;Laerm;37751;52.408;12.536;2023-05-16T09:14:13;63.87;52.44;73.44;;
51665;Laerm;37751;52.408;12.536;2023-05-16T09:16:41;71.19;55.96;93.07;;
51665;Laerm;37751;52.408;12.536;2023-05-16T09:19:12;74.88;50.56;91.26;;
51665;Laerm;37751;52.408;12.536;2023-05-16T09:21:43;65.14;51.65;78.15;;
51665;Laerm;37751;52.408;12.536;2023-05-16T09:24:11;66.35;52.85;81.85;;
51665;Laerm;37751;52.408;12.536;2023-05-16T09:26:38;66.21;53.92;81.14;;
51665;Laerm;37751;52.408;12.536;2023-05-16T09:29:12;64.74;53.15;74.05;;
51665;Laerm;37751;52.408;12.536;2023-05-16T09:31:40;66.27;52.72;78.19;;
51665;Laerm;37751;52.408;12.536;2023-05-16T09:34:09;64.53;55.04;78.73;;
51665;Laerm;37751;52.408;12.536;2023-05-16T09:36:40;65.21;50.90;74.79;;
51665;Laerm;37751;52.408;12.536;2023-05-16T09:39:14;64.46;52.50;72.77;;
51665;Laerm;37751;52.408;12.536;2023-05-16T09:41:42;65.49;54.18;78.16;;
51665;Laerm;37751;52.408;12.536;2023-05-16T09:44:09;65.21;54.14;74.54;;
51665;Laerm;37751;52.408;12.536;2023-05-16T09:46:37;63.59;52.99;71.74;;
51665;Laerm;37751;52.408;12.536;2023-05-16T09:49:05;63.24;51.82;74.55;;
51665;Laerm;37751;52.408;12.536;2023-05-16T09:51:33;72.18;53.41;95.22;;
51665;Laerm;37751;52.408;12.536;2023-05-16T09:54:01;66.91;55.16;76.89;;
51665;Laerm;37751;52.408;12.536;2023-05-16T09:56:29;67.24;52.85;79.48;;
51665;Laerm;37751;52.408;12.536;2023-05-16T09:59:03;73.18;50.81;95.91;;
51665;Laerm;37751;52.408;12.536;2023-05-16T10:01:43;65.54;52.95;78.47;;
51665;Laerm;37751;52.408;12.536;2023-05-16T10:04:11;63.13;52.30;72.46;;
51665;Laerm;37751;52.408;12.536;2023-05-16T10:06:43;65.00;53.54;73.92;;
51665;Laerm;37751;52.408;12.536;2023-05-16T10:09:14;64.58;54.41;72.41;;
51665;Laerm;37751;52.408;12.536;2023-05-16T10:11:45;64.55;56.07;73.88;;
51665;Laerm;37751;52.408;12.536;2023-05-16T10:14:17;62.83;49.29;75.85;;
51665;Laerm;37751;52.408;12.536;2023-05-16T10:16:47;64.28;54.08;73.09;;
51665;Laerm;37751;52.408;12.536;2023-05-16T10:19:20;65.99;56.29;74.76;;
51665;Laerm;37751;52.408;12.536;2023-05-16T10:21:53;64.95;55.63;74.12;;
51665;Laerm;37751;52.408;12.536;2023-05-16T10:24:56;65.40;54.12;89.26;;
51665;Laerm;37751;52.408;12.536;2023-05-16T10:27:22;64.00;52.54;77.71;;
51665;Laerm;37751;52.408;12.536;2023-05-16T10:29:51;65.69;53.00;78.04;;
51665;Laerm;37751;52.408;12.536;2023-05-16T10:32:25;65.41;53.47;80.92;;
51665;Laerm;37751;52.408;12.536;2023-05-16T10:34:56;67.38;53.10;83.69;;
51665;Laerm;37751;52.408;12.536;2023-05-16T10:37:24;64.41;55.94;74.08;;
51665;Laerm;37751;52.408;12.536;2023-05-16T10:39:53;65.41;53.80;79.60;;
51665;Laerm;37751;52.408;12.536;2023-05-16T10:42:27;66.77;56.55;82.80;;
51665;Laerm;37751;52.408;12.536;2023-05-16T10:45:14;63.48;51.92;76.58;;
51665;Laerm;37751;52.408;12.536;2023-05-16T10:48:02;73.63;53.94;95.01;;
51665;Laerm;37751;52.408;12.536;2023-05-16T10:50:45;65.19;53.58;74.76;;
51665;Laerm;37751;52.408;12.536;2023-05-16T10:53:34;65.82;54.63;78.59;;
51665;Laerm;37751;52.408;12.536;2023-05-16T10:56:05;63.44;52.93;71.74;;
51665;Laerm;37751;52.408;12.536;2023-05-16T11:01:27;68.24;56.47;81.12;;
51665;Laerm;37751;52.408;12.536;2023-05-16T11:11:54;63.39;50.66;72.73;;
51665;Laerm;37751;52.408;12.536;2023-05-16T11:17:09;64.88;51.31;79.55;;
51665;Laerm;37751;52.408;12.536;2023-05-16T11:19:55;64.37;53.67;79.91;;
51665;Laerm;37751;52.408;12.536;2023-05-16T11:22:31;64.82;49.76;73.52;;
51665;Laerm;37751;52.408;12.536;2023-05-16T11:25:07;64.79;53.66;75.49;;
51665;Laerm;37751;52.408;12.536;2023-05-16T11:27:42;65.36;55.62;76.27;;
51665;Laerm;37751;52.408;12.536;2023-05-16T11:30:16;63.82;53.27;74.68;;
51665;Laerm;37751;52.408;12.536;2023-05-16T11:32:49;64.95;54.87;76.91;;
51665;Laerm;37751;52.408;12.536;2023-05-16T11:35:17;64.46;51.92;78.44;;
51665;Laerm;37751;52.408;12.536;2023-05-16T11:37:46;65.16;53.90;76.30;;
51665;Laerm;37751;52.408;12.536;2023-05-16T11:40:14;64.45;55.50;75.61;;
51665;Laerm;37751;52.408;12.536;2023-05-16T11:42:52;69.23;52.59;89.52;;
51665;Laerm;37751;52.408;12.536;2023-05-16T11:45:22;73.15;56.49;95.34;;
51665;Laerm;37751;52.408;12.536;2023-05-16T11:47:52;63.01;50.85;74.10;;
51665;Laerm;37751;52.408;12.536;2023-05-16T11:50:22;64.45;55.39;74.96;;
51665;Laerm;37751;52.408;12.536;2023-05-16T11:52:53;65.20;53.50;80.26;;
51665;Laerm;37751;52.408;12.536;2023-05-16T11:55:26;66.89;51.90;79.20;;
51665;Laerm;37751;52.408;12.536;2023-05-16T11:58:09;65.22;52.64;74.92;;
51665;Laerm;37751;52.408;12.536;2023-05-16T12:00:47;66.00;53.34;79.02;;
51665;Laerm;37751;52.408;12.536;2023-05-16T12:03:17;64.20;54.93;74.25;;
51665;Laerm;37751;52.408;12.536;2023-05-16T12:05:54;64.77;55.20;74.53;;
51665;Laerm;37751;52.408;12.536;2023-05-16T12:08:23;64.66;54.32;75.07;;
51665;Laerm;37751;52.408;12.536;2023-05-16T12:10:52;64.33;56.84;72.28;;
51665;Laerm;37751;52.408;12.536;2023-05-16T12:13:23;65.72;56.08;81.66;;
51665;Laerm;37751;52.408;12.536;2023-05-16T12:15:52;64.79;55.78;75.43;;
51665;Laerm;37751;52.408;12.536;2023-05-16T12:18:20;63.44;54.39;71.38;;
51665;Laerm;37751;52.408;12.536;2023-05-16T12:20:48;65.94;52.77;82.42;;
51665;Laerm;37751;52.408;12.536;2023-05-16T12:23:17;81.06;56.95;99.47;;
51665;Laerm;37751;52.408;12.536;2023-05-16T12:25:45;64.95;53.28;72.01;;
51665;Laerm;37751;52.408;12.536;2023-05-16T12:28:14;64.79;55.42;73.46;;
51665;Laerm;37751;52.408;12.536;2023-05-16T12:30:43;64.42;52.46;77.26;;
51665;Laerm;37751;52.408;12.536;2023-05-16T12:33:15;65.78;53.33;86.56;;
51665;Laerm;37751;52.408;12.536;2023-05-16T12:35:45;63.68;54.58;73.35;;
51665;Laerm;37751;52.408;12.536;2023-05-16T12:38:14;65.10;55.83;75.70;;
51665;Laerm;37751;52.408;12.536;2023-05-16T12:40:50;64.68;49.70;74.90;;
51665;Laerm;37751;52.408;12.536;2023-05-16T12:43:24;63.99;52.40;74.79;;
51665;Laerm;37751;52.408;12.536;2023-05-16T12:45:54;65.44;55.87;81.27;;
51665;Laerm;37751;52.408;12.536;2023-05-16T12:48:31;65.29;52.82;77.15;;
51665;Laerm;37751;52.408;12.536;2023-05-16T12:51:18;65.13;54.85;75.98;;
51665;Laerm;37751;52.408;12.536;2023-05-16T12:53:48;64.52;52.09;75.57;;
51665;Laerm;37751;52.408;12.536;2023-05-16T12:56:39;64.93;50.10;76.79;;
51665;Laerm;37751;52.408;12.536;2023-05-16T12:59:07;67.79;55.31;81.55;;
51665;Laerm;37751;52.408;12.536;2023-05-16T13:01:35;65.23;55.52;79.34;;
51665;Laerm;37751;52.408;12.536;2023-05-16T13:04:04;69.55;57.73;80.73;;
51665;Laerm;37751;52.408;12.536;2023-05-16T13:06:32;67.97;60.30;83.07;;
51665;Laerm;37751;52.408;12.536;2023-05-16T13:09:20;64.26;57.45;79.17;;
51665;Laerm;37751;52.408;12.536;2023-05-16T13:11:49;65.40;58.03;76.03;;
51665;Laerm;37751;52.408;12.536;2023-05-16T13:14:20;64.68;56.46;73.32;;
51665;Laerm;37751;52.408;12.536;2023-05-16T13:16:50;66.39;54.81;82.56;;
51665;Laerm;37751;52.408;12.536;2023-05-16T13:19:18;65.58;55.41;73.66;;
51665;Laerm;37751;52.408;12.536;2023-05-16T13:21:46;66.88;56.03;78.03;;
51665;Laerm;37751;52.408;12.536;2023-05-16T13:24:15;64.90;53.19;72.83;;
51665;Laerm;37751;52.408;12.536;2023-05-16T13:26:43;64.03;53.98;74.53;;
51665;Laerm;37751;52.408;12.536;2023-05-16T13:29:11;64.90;52.66;73.57;;
51665;Laerm;37751;52.408;12.536;2023-05-16T13:31:39;65.74;59.59;76.74;;
51665;Laerm;37751;52.408;12.536;2023-05-16T13:34:07;65.06;57.54;76.37;;
51665;Laerm;37751;52.408;12.536;2023-05-16T13:36:35;64.66;56.48;72.54;;
51665;Laerm;37751;52.408;12.536;2023-05-16T13:39:20;65.52;56.54;78.44;;
51665;Laerm;37751;52.408;12.536;2023-05-16T13:41:49;65.43;56.59;75.19;;
51665;Laerm;37751;52.408;12.536;2023-05-16T13:44:17;65.73;56.87;86.92;;
51665;Laerm;37751;52.408;12.536;2023-05-16T13:46:45;65.75;57.71;78.62;;
51665;Laerm;37751;52.408;12.536;2023-05-16T13:49:13;67.82;60.15;83.02;;
51665;Laerm;37751;52.408;12.536;2023-05-16T13:51:40;67.12;59.30;76.56;;
51665;Laerm;37751;52.408;12.536;2023-05-16T13:54:10;67.87;58.97;79.34;;
51665;Laerm;37751;52.408;12.536;2023-05-16T13:56:38;67.76;60.80;78.34;;
51665;Laerm;37751;52.408;12.536;2023-05-16T13:59:06;66.24;58.58;75.04;;
51665;Laerm;37751;52.408;12.536;2023-05-16T14:01:37;64.66;58.90;75.93;;
51665;Laerm;37751;52.408;12.536;2023-05-16T14:04:05;81.34;57.06;98.15;;
51665;Laerm;37751;52.408;12.536;2023-05-16T14:06:33;64.08;57.05;75.50;;
51665;Laerm;37751;52.408;12.536;2023-05-16T14:09:01;65.49;57.41;76.34;;